Time;durP1;ratioP1;P1;durP2;ratioP2;P2;SDS_P1;SDS_P2;PMS_P1;PMS_P2;Temp;Humidity;BMP_temperature;BMP_pressure;BME280_temperature;BME280_humidity;BME280_pressure;Samples;Min_cycle;Max_cycle;Signal;HPM_P1;HPM_P2
2022/12/18 00:00:33;;;;;;;42.00;23.80;;;;;;;-5.54;75.64;99126.22;4119062;28;21188;-86
2022/12/18 00:03:02;;;;;;;42.35;22.60;;;;;;;-5.58;75.26;99130.41;4117610;28;20220;-86
2022/12/18 00:05:07;;;;;;;45.95;24.55;;;;;;;-5.66;74.62;99127.78;4116566;28;20225;-86
2022/12/18 00:07:10;;;;;;;44.55;22.42;;;;;;;-5.69;73.93;99131.13;4107910;28;20216;-86
2022/12/18 00:09:13;;;;;;;42.50;22.60;;;;;;;-5.74;73.77;99126.84;4137513;28;20264;-86
2022/12/18 00:11:18;;;;;;;45.40;22.90;;;;;;;-5.74;73.61;99129.38;4122724;28;20205;-86
2022/12/18 00:13:23;;;;;;;57.78;29.58;;;;;;;-5.72;73.89;99126.00;4108183;28;20710;-86
2022/12/18 00:15:26;;;;;;;43.03;23.25;;;;;;;-5.72;73.81;99126.00;4118567;28;20204;-86
2022/12/18 00:17:29;;;;;;;42.88;22.83;;;;;;;-5.70;74.79;99137.03;4116929;28;20691;-86
2022/12/18 00:19:32;;;;;;;43.05;23.35;;;;;;;-5.69;75.38;99136.19;4097303;28;20225;-86
2022/12/18 00:21:35;;;;;;;53.05;25.25;;;;;;;-5.68;74.76;99145.53;4137449;28;20219;-86
2022/12/18 00:23:39;;;;;;;60.63;29.75;;;;;;;-5.66;75.23;99137.94;4136587;28;20731;-86
2022/12/18 00:25:43;;;;;;;53.42;27.95;;;;;;;-5.72;74.21;99138.69;4133613;28;20355;-86
2022/12/18 00:27:47;;;;;;;50.55;27.45;;;;;;;-5.84;73.08;99138.59;4137642;28;20227;-86
2022/12/18 00:29:51;;;;;;;62.05;31.90;;;;;;;-5.91;73.37;99131.75;4114162;28;20219;-86
2022/12/18 00:31:54;;;;;;;103.10;47.97;;;;;;;-5.90;73.85;99130.06;4118234;28;20239;-86
2022/12/18 00:33:58;;;;;;;91.40;42.60;;;;;;;-5.93;74.91;99130.84;4131924;28;21049;-86
2022/12/18 00:36:01;;;;;;;109.18;47.95;;;;;;;-5.94;75.05;99124.09;4135491;28;20208;-86
2022/12/18 00:38:06;;;;;;;68.95;36.78;;;;;;;-5.92;75.07;99127.50;4122548;28;20968;-86
2022/12/18 00:40:10;;;;;;;57.65;31.10;;;;;;;-5.84;74.92;99128.44;4134289;28;20744;-86
2022/12/18 00:44:34;;;;;;;49.55;25.75;;;;;;;-5.88;75.24;99131.78;4121212;28;20264;-86
2022/12/18 00:46:39;;;;;;;54.92;30.25;;;;;;;-5.84;75.76;99136.03;4120010;28;20263;-86
2022/12/18 00:48:42;;;;;;;48.63;24.48;;;;;;;-5.87;75.40;99135.16;4107929;28;20223;-86
2022/12/18 00:50:48;;;;;;;51.58;27.25;;;;;;;-5.94;74.78;99129.19;4120538;28;20212;-86
2022/12/18 00:52:52;;;;;;;43.70;23.27;;;;;;;-5.92;74.06;99135.13;4133055;28;20199;-86
2022/12/18 00:54:55;;;;;;;41.70;23.23;;;;;;;-5.90;74.44;99128.34;4131696;28;20215;-86
2022/12/18 00:56:58;;;;;;;48.33;25.35;;;;;;;-5.89;74.43;99116.53;4120885;28;20746;-86
2022/12/18 00:59:01;;;;;;;44.05;23.70;;;;;;;-5.88;75.45;99119.09;4134786;28;20208;-87
2022/12/18 01:01:04;;;;;;;48.30;24.45;;;;;;;-5.80;75.16;99116.63;4114934;28;20212;-87
2022/12/18 01:03:13;;;;;;;49.35;27.85;;;;;;;-5.80;76.11;99122.56;4123229;28;20735;-86
2022/12/18 01:05:19;;;;;;;46.45;23.48;;;;;;;-5.77;75.98;99131.88;4133279;28;20207;-86
2022/12/18 01:07:22;;;;;;;45.33;24.77;;;;;;;-5.77;76.09;99137.84;4140030;28;20207;-86
2022/12/18 01:09:28;;;;;;;44.00;24.48;;;;;;;-5.80;76.06;99142.00;4140839;28;20247;-86
2022/12/18 01:11:32;;;;;;;42.83;23.63;;;;;;;-5.83;75.29;99139.44;4136763;28;20207;-86
2022/12/18 01:13:35;;;;;;;42.65;23.63;;;;;;;-5.91;73.11;99135.94;4128460;28;20904;-86
2022/12/18 01:15:39;;;;;;;48.75;27.23;;;;;;;-6.00;73.09;99136.72;4134950;28;20212;-86
2022/12/18 01:17:45;;;;;;;46.65;21.60;;;;;;;-6.14;72.25;99123.84;4121702;28;20334;-86
2022/12/18 01:19:50;;;;;;;54.38;22.80;;;;;;;-6.18;71.96;99122.91;4123495;28;20612;-86
2022/12/18 01:21:53;;;;;;;45.85;22.70;;;;;;;-6.29;70.95;99123.63;4139369;28;20298;-86
2022/12/18 01:23:56;;;;;;;41.75;22.27;;;;;;;-6.26;72.53;99127.03;4126344;28;20207;-86
2022/12/18 01:26:05;;;;;;;41.17;22.15;;;;;;;-6.23;73.08;99128.78;4110372;28;20583;-86
2022/12/18 01:28:10;;;;;;;42.22;22.20;;;;;;;-6.18;74.41;99130.53;4144995;28;20634;-86
2022/12/18 01:30:14;;;;;;;41.95;21.45;;;;;;;-6.13;74.43;99145.81;4135406;28;20591;-87
2022/12/18 01:32:20;;;;;;;39.28;23.45;;;;;;;-6.09;75.95;99140.78;4124690;28;20227;-86
2022/12/18 01:34:23;;;;;;;40.28;21.90;;;;;;;-6.03;76.36;99154.44;4121349;28;20223;-86
2022/12/18 01:36:29;;;;;;;42.53;22.67;;;;;;;-5.96;76.68;99153.66;4120950;28;20208;-86
2022/12/18 01:38:32;;;;;;;40.42;22.63;;;;;;;-5.95;76.49;99157.91;4141193;28;20207;-86
2022/12/18 01:40:36;;;;;;;42.85;24.27;;;;;;;-5.94;76.19;99154.56;4120469;28;20244;-86
2022/12/18 01:42:39;;;;;;;41.65;22.35;;;;;;;-5.91;76.00;99153.72;4103000;28;20259;-86
2022/12/18 01:45:06;;;;;;;47.65;23.27;;;;;;;-5.91;75.25;99161.34;4137975;28;20218;-87
2022/12/18 01:47:09;;;;;;;43.38;21.63;;;;;;;-5.89;75.93;99160.53;4139870;28;21615;-86
2022/12/18 01:49:12;;;;;;;39.58;21.55;;;;;;;-5.87;76.40;99155.47;4122040;28;22117;-86
2022/12/18 01:51:16;;;;;;;39.53;21.42;;;;;;;-5.89;76.62;99150.38;4126869;28;20214;-86
2022/12/18 01:53:23;;;;;;;38.72;21.92;;;;;;;-5.87;76.88;99150.41;4124011;28;20220;-86
2022/12/18 01:55:29;;;;;;;39.05;21.00;;;;;;;-5.84;76.82;99145.34;4138623;28;20675;-86
2022/12/18 01:57:32;;;;;;;33.40;20.10;;;;;;;-5.84;75.49;99145.34;4124718;28;20213;-86
2022/12/18 01:59:36;;;;;;;40.90;21.67;;;;;;;-5.80;75.25;99142.88;4137578;28;20592;-86
2022/12/18 02:01:39;;;;;;;45.10;23.13;;;;;;;-5.85;75.22;99146.19;4126573;28;20216;-86
2022/12/18 02:03:45;;;;;;;40.92;21.35;;;;;;;-5.83;76.25;99142.84;4140700;28;20659;-86
2022/12/18 02:05:56;;;;;;;46.47;23.48;;;;;;;-5.83;76.88;99140.31;4126933;28;20206;-86
2022/12/18 02:08:07;;;;;;;43.05;22.15;;;;;;;-5.79;76.23;99142.03;4140888;28;20211;-87
2022/12/18 02:10:16;;;;;;;36.00;21.73;;;;;;;-5.77;76.94;99147.13;4122430;28;20207;-86
2022/12/18 02:12:22;;;;;;;39.80;21.60;;;;;;;-5.79;76.14;99156.41;4135855;28;20614;-86
2022/12/18 02:14:30;;;;;;;38.85;21.48;;;;;;;-5.75;76.18;99155.63;4140076;28;20204;-86
2022/12/18 02:16:40;;;;;;;40.17;19.80;;;;;;;-5.71;77.02;99147.16;4119645;28;20216;-86
2022/12/18 02:18:48;;;;;;;37.17;20.65;;;;;;;-5.71;76.16;99148.03;4124809;28;20239;-86
2022/12/18 02:20:56;;;;;;;43.17;23.33;;;;;;;-5.80;74.47;99147.06;4123289;28;20290;-86
2022/12/18 02:23:08;;;;;;;47.08;23.40;;;;;;;-5.91;74.27;99153.72;4125114;28;20208;-86
2022/12/18 02:25:25;;;;;;;38.38;19.00;;;;;;;-6.04;73.26;99157.78;4105462;28;20209;-86
2022/12/18 02:27:31;;;;;;;38.80;19.63;;;;;;;-6.14;72.12;99155.13;4128631;28;20251;-87
2022/12/18 02:29:40;;;;;;;35.22;20.20;;;;;;;-6.29;71.05;99164.22;4122772;28;20196;-87
2022/12/18 02:31:46;;;;;;;39.75;22.20;;;;;;;-6.41;71.76;99158.97;4120923;28;20679;-87
2022/12/18 02:33:50;;;;;;;37.00;22.08;;;;;;;-6.49;71.38;99155.47;4138976;28;20208;-87
2022/12/18 02:35:55;;;;;;;36.80;20.05;;;;;;;-6.48;71.49;99152.09;4142031;28;20219;-87
2022/12/18 02:37:59;;;;;;;40.75;21.42;;;;;;;-6.49;73.17;99147.88;4124824;28;20231;-87
2022/12/18 02:40:06;;;;;;;39.03;20.15;;;;;;;-6.43;72.97;99138.66;4112674;28;20653;-87
2022/12/18 02:42:13;;;;;;;46.35;22.25;;;;;;;-6.36;74.47;99135.38;4105352;28;20196;-87
2022/12/18 02:44:17;;;;;;;40.65;21.67;;;;;;;-6.33;74.18;99147.22;4121391;28;20296;-87
2022/12/18 02:46:39;;;;;;;41.17;20.83;;;;;;;-6.36;74.99;99158.22;4103013;28;20225;-88
2022/12/18 02:48:46;;;;;;;42.13;21.20;;;;;;;-6.45;75.51;99158.06;4121165;28;20300;-87
2022/12/18 02:50:54;;;;;;;40.78;20.30;;;;;;;-6.45;74.03;99163.16;4136180;28;20208;-87
2022/12/18 02:53:07;;;;;;;36.15;21.00;;;;;;;-6.46;73.76;99161.44;4119249;28;20254;-87
2022/12/18 02:55:19;;;;;;;39.50;20.80;;;;;;;-6.50;73.64;99163.91;4107936;28;20734;-87
2022/12/18 02:57:35;;;;;;;37.70;20.52;;;;;;;-6.53;73.47;99158.78;4105674;28;20196;-88
2022/12/18 02:59:43;;;;;;;40.70;20.55;;;;;;;-6.54;73.64;99162.13;4109637;28;20216;-87
2022/12/18 03:01:52;;;;;;;36.65;20.15;;;;;;;-6.46;74.28;99176.63;4108894;28;20277;-88
2022/12/18 03:03:58;;;;;;;37.22;21.30;;;;;;;-6.44;74.33;99187.66;4110776;28;20721;-87
2022/12/18 03:06:04;;;;;;;39.30;20.23;;;;;;;-6.47;73.95;99179.16;4138211;28;20243;-87
2022/12/18 03:08:11;;;;;;;36.40;19.33;;;;;;;-6.42;74.65;99172.47;4120562;28;20295;-87
2022/12/18 03:10:18;;;;;;;35.92;20.85;;;;;;;-6.38;74.76;99176.75;4110296;28;20207;-87
2022/12/18 03:12:27;;;;;;;37.47;20.85;;;;;;;-6.33;75.49;99176.00;4126943;28;20196;-87
2022/12/18 03:14:35;;;;;;;39.78;20.13;;;;;;;-6.31;75.32;99171.78;4134226;28;20203;-87
2022/12/18 03:16:41;;;;;;;38.65;20.48;;;;;;;-6.28;75.15;99176.06;4108011;28;20217;-87
2022/12/18 03:18:47;;;;;;;38.05;19.65;;;;;;;-6.26;75.10;99182.84;4120981;28;20250;-87
2022/12/18 03:20:52;;;;;;;38.63;19.40;;;;;;;-6.27;76.06;99185.34;4117993;28;20613;-87
2022/12/18 03:23:02;;;;;;;36.38;19.45;;;;;;;-6.23;75.74;99180.34;4128217;28;20212;-87
2022/12/18 03:25:07;;;;;;;38.65;20.00;;;;;;;-6.18;77.28;99182.97;4117487;28;20208;-87
2022/12/18 03:27:14;;;;;;;36.88;19.08;;;;;;;-6.10;76.79;99173.75;4122317;28;20219;-87
2022/12/18 03:29:20;;;;;;;39.30;18.60;;;;;;;-6.11;76.34;99175.44;4135161;28;20211;-87
2022/12/18 03:31:24;;;;;;;34.55;19.05;;;;;;;-6.08;76.59;99185.66;4106637;28;20209;-87
2022/12/18 03:33:32;;;;;;;34.17;19.50;;;;;;;-6.00;78.41;99190.00;4105843;28;20228;-88
2022/12/18 03:35:39;;;;;;;39.35;20.58;;;;;;;-5.93;79.40;99199.38;4122338;28;20215;-87
2022/12/18 03:37:43;;;;;;;43.72;20.95;;;;;;;-5.80;79.30;99201.25;4109814;28;20236;-87
2022/12/18 03:39:47;;;;;;;38.17;20.85;;;;;;;-5.72;79.89;99197.09;4106245;28;20217;-87
2022/12/18 03:41:57;;;;;;;41.67;21.60;;;;;;;-5.67;79.89;99200.53;4124777;28;20261;-87
2022/12/18 03:44:13;;;;;;;42.63;21.95;;;;;;;-5.57;80.11;99202.34;4120843;28;20338;-87
2022/12/18 03:46:26;;;;;;;39.00;21.02;;;;;;;-5.55;80.61;99208.28;4106761;28;20311;-87
2022/12/18 03:48:35;;;;;;;37.75;21.70;;;;;;;-5.46;80.89;99198.25;4100447;28;20248;-87
2022/12/18 03:50:47;;;;;;;37.47;20.08;;;;;;;-5.39;80.98;99197.50;4120763;28;20207;-87
2022/12/18 03:52:56;;;;;;;40.70;20.77;;;;;;;-5.34;81.14;99201.75;4142554;28;20214;-87
2022/12/18 03:55:00;;;;;;;37.05;19.92;;;;;;;-5.25;80.67;99206.09;4126527;28;20270;-87
2022/12/18 03:57:07;;;;;;;36.65;19.73;;;;;;;-5.22;80.98;99201.91;4138302;28;20651;-88
2022/12/18 03:59:13;;;;;;;40.95;21.13;;;;;;;-5.15;81.13;99197.75;4113557;28;20217;-87
2022/12/18 04:01:19;;;;;;;39.65;21.35;;;;;;;-5.14;81.03;99201.16;4120143;28;20346;-88
2022/12/18 04:03:24;;;;;;;40.13;22.20;;;;;;;-5.08;80.31;99203.75;4103881;28;20209;-88
2022/12/18 04:05:31;;;;;;;37.63;20.35;;;;;;;-5.09;80.68;99209.66;4100600;28;20253;-88
2022/12/18 04:07:35;;;;;;;46.10;21.98;;;;;;;-5.05;80.56;99201.25;4138784;28;20262;-88
2022/12/18 04:09:42;;;;;;;41.15;22.27;;;;;;;-5.03;80.21;99199.56;4120364;28;20221;-88
2022/12/18 04:11:46;;;;;;;37.22;20.17;;;;;;;-5.02;79.75;99190.25;4105178;28;20209;-87
2022/12/18 04:13:56;;;;;;;36.85;20.27;;;;;;;-5.04;79.83;99200.38;4133808;28;20243;-88
2022/12/18 04:16:01;;;;;;;43.45;21.50;;;;;;;-5.07;79.79;99197.84;4122407;28;20196;-87
2022/12/18 04:18:05;;;;;;;35.88;19.75;;;;;;;-5.06;78.85;99194.44;4120283;28;20204;-88
2022/12/18 04:20:16;;;;;;;40.75;20.75;;;;;;;-5.04;79.19;99208.00;4124593;28;20204;-88
2022/12/18 04:22:22;;;;;;;34.05;19.48;;;;;;;-5.09;78.11;99204.59;4138473;28;20199;-88
2022/12/18 04:24:31;;;;;;;39.60;20.30;;;;;;;-5.14;77.66;99201.16;4117185;28;20196;-87
2022/12/18 04:26:47;;;;;;;39.83;20.95;;;;;;;-5.18;77.86;99206.19;4123211;28;20282;-88
2022/12/18 04:28:53;;;;;;;39.70;19.65;;;;;;;-5.19;78.64;99201.09;4140191;28;20627;-88
2022/12/18 04:30:57;;;;;;;43.45;20.38;;;;;;;-5.16;78.41;99213.81;4124477;28;20207;-88
2022/12/18 04:33:00;;;;;;;37.03;20.58;;;;;;;-5.18;78.99;99212.97;4121732;28;20266;-88
2022/12/18 04:35:10;;;;;;;37.85;20.20;;;;;;;-5.14;78.76;99215.56;4125800;28;20253;-88
2022/12/18 04:37:14;;;;;;;40.22;20.60;;;;;;;-5.18;78.30;99203.66;4122441;28;20204;-88
2022/12/18 04:39:19;;;;;;;37.58;20.55;;;;;;;-5.20;77.77;99201.91;4131373;28;20611;-88
2022/12/18 04:41:25;;;;;;;38.08;20.08;;;;;;;-5.31;77.65;99195.88;4143237;28;20265;-87
2022/12/18 04:43:29;;;;;;;38.30;20.92;;;;;;;-5.32;78.85;99210.28;4123812;28;20769;-87
2022/12/18 04:45:32;;;;;;;39.53;21.48;;;;;;;-5.31;78.73;99217.03;4123651;28;20208;-87
2022/12/18 04:47:35;;;;;;;36.05;20.38;;;;;;;-5.27;78.49;99215.41;4125963;28;20243;-87
2022/12/18 04:49:38;;;;;;;37.85;20.90;;;;;;;-5.33;78.05;99220.41;4106226;28;20232;-87
2022/12/18 04:51:41;;;;;;;41.00;21.27;;;;;;;-5.42;77.76;99212.69;4123232;28;20295;-87
2022/12/18 04:53:44;;;;;;;39.42;20.83;;;;;;;-5.38;78.71;99205.13;4136430;28;20215;-87
2022/12/18 04:55:48;;;;;;;44.30;23.23;;;;;;;-5.38;78.04;99219.50;4122805;28;20619;-87
2022/12/18 04:57:52;;;;;;;35.88;20.45;;;;;;;-5.36;78.63;99226.31;4139520;28;21074;-87
2022/12/18 04:59:55;;;;;;;43.72;22.25;;;;;;;-5.34;78.27;99221.25;4119108;28;20195;-88
2022/12/18 05:01:58;;;;;;;38.70;19.65;;;;;;;-5.31;78.96;99228.91;4102945;28;20212;-87
2022/12/18 05:04:01;;;;;;;37.83;21.65;;;;;;;-5.26;78.28;99234.88;4130762;28;20793;-87
2022/12/18 05:06:05;;;;;;;40.33;21.55;;;;;;;-5.26;78.62;99224.72;4135115;28;20218;-88
2022/12/18 05:08:08;;;;;;;40.15;21.55;;;;;;;-5.34;78.63;99219.53;4108528;28;20320;-89
2022/12/18 05:10:11;;;;;;;42.95;22.48;;;;;;;-5.47;78.66;99217.72;4108019;28;20248;-89
2022/12/18 05:12:16;;;;;;;39.78;21.98;;;;;;;-5.50;78.68;99214.31;4105288;28;20737;-87
2022/12/18 05:14:20;;;;;;;44.65;21.90;;;;;;;-5.48;78.57;99212.63;4108527;28;20275;-89
2022/12/18 05:16:22;;;;;;;42.47;21.23;;;;;;;-5.50;78.67;99215.13;4121390;28;20654;-88
2022/12/18 05:18:26;;;;;;;39.78;21.50;;;;;;;-5.54;78.74;99215.94;4103439;28;20213;-88
2022/12/18 05:20:29;;;;;;;46.75;24.40;;;;;;;-5.65;79.08;99214.13;4117764;28;20212;-88
2022/12/18 05:22:32;;;;;;;44.60;22.33;;;;;;;-5.72;79.65;99214.00;4134307;28;20708;-88
2022/12/18 05:24:35;;;;;;;43.00;22.90;;;;;;;-5.77;79.73;99210.56;4124932;28;20212;-88
2022/12/18 05:26:38;;;;;;;51.45;25.65;;;;;;;-5.80;79.78;99216.50;4137152;28;20213;-88
2022/12/18 05:28:45;;;;;;;52.47;25.08;;;;;;;-5.85;79.78;99217.25;4138773;28;20220;-88
2022/12/18 05:30:50;;;;;;;52.40;25.70;;;;;;;-5.92;80.69;99221.41;4117340;28;20283;-88
2022/12/18 05:32:53;;;;;;;42.90;21.65;;;;;;;-5.89;80.63;99216.38;4109509;28;20304;-88
2022/12/18 05:34:57;;;;;;;46.58;24.92;;;;;;;-5.89;80.69;99216.38;4140318;28;20219;-88
2022/12/18 05:37:00;;;;;;;48.75;24.63;;;;;;;-5.89;80.46;99212.97;4127467;28;20259;-88
2022/12/18 05:39:05;;;;;;;44.67;21.20;;;;;;;-5.84;80.25;99204.56;4127192;28;20208;-88
2022/12/18 05:41:09;;;;;;;44.35;22.83;;;;;;;-5.92;80.53;99207.88;4120108;28;20218;-88
2022/12/18 05:43:12;;;;;;;43.90;23.33;;;;;;;-5.93;80.65;99211.22;4107876;28;20624;-88
2022/12/18 05:45:24;;;;;;;45.58;23.25;;;;;;;-5.88;81.15;99217.22;4122137;28;20203;-88
2022/12/18 05:47:27;;;;;;;39.30;19.98;;;;;;;-5.86;80.65;99218.09;4117482;28;20617;-88
2022/12/18 05:49:31;;;;;;;42.17;21.40;;;;;;;-5.86;81.41;99224.03;4138081;28;20219;-88
2022/12/18 05:51:34;;;;;;;42.28;20.60;;;;;;;-5.80;80.87;99224.09;4139423;28;20196;-88
2022/12/18 05:53:37;;;;;;;43.05;20.70;;;;;;;-5.73;80.92;99219.91;4141888;28;20683;-88
2022/12/18 05:55:42;;;;;;;40.30;20.70;;;;;;;-5.68;80.90;99229.31;4126212;28;20243;-88
2022/12/18 05:57:45;;;;;;;39.47;21.35;;;;;;;-5.63;81.16;99235.28;4141202;28;20559;-88
2022/12/18 05:59:48;;;;;;;42.58;21.13;;;;;;;-5.58;80.85;99234.53;4121714;28;20760;-88
2022/12/18 06:01:58;;;;;;;37.78;21.50;;;;;;;-5.52;80.43;99241.34;4139654;28;21588;-88
2022/12/18 06:04:01;;;;;;;39.50;20.30;;;;;;;-5.46;80.03;99241.41;4143685;28;20212;-88
2022/12/18 06:06:12;;;;;;;40.67;21.00;;;;;;;-5.39;80.05;99233.06;4123698;28;20669;-88
2022/12/18 06:08:18;;;;;;;39.28;20.65;;;;;;;-5.40;79.96;99241.50;4125245;28;20223;-89
2022/12/18 06:10:21;;;;;;;44.75;20.90;;;;;;;-5.40;79.93;99244.03;4122980;28;20712;-88
2022/12/18 06:12:24;;;;;;;38.15;20.60;;;;;;;-5.37;79.79;99244.91;4121625;28;20227;-90
2022/12/18 06:14:28;;;;;;;38.97;18.63;;;;;;;-5.36;79.11;99245.78;4121637;28;20208;-91
2022/12/18 06:16:31;;;;;;;35.53;18.40;;;;;;;-5.37;79.28;99239.84;4141275;28;20242;-90
2022/12/18 06:18:39;;;;;;;35.35;18.40;;;;;;;-5.33;79.19;99240.75;4124821;28;20371;-89
2022/12/18 06:20:42;;;;;;;34.88;19.17;;;;;;;-5.32;78.40;99239.88;4111639;28;20260;-90
2022/12/18 06:22:45;;;;;;;35.30;19.42;;;;;;;-5.34;78.54;99246.66;4128096;28;20210;-90
2022/12/18 06:24:48;;;;;;;44.45;21.15;;;;;;;-5.39;78.62;99249.13;4145737;28;20594;-91
2022/12/18 06:26:52;;;;;;;38.85;19.80;;;;;;;-5.41;78.07;99240.66;4122057;28;20305;-91
2022/12/18 06:28:55;;;;;;;35.63;19.88;;;;;;;-5.42;78.12;99245.72;4142385;28;20211;-90
2022/12/18 06:30:58;;;;;;;38.92;20.35;;;;;;;-5.46;78.74;99232.13;4129221;28;20226;-90
2022/12/18 06:33:01;;;;;;;35.13;18.58;;;;;;;-5.48;78.17;99241.41;4121820;28;20208;-90
2022/12/18 06:35:07;;;;;;;37.42;19.80;;;;;;;-5.51;78.33;99243.06;4126411;28;20219;-90
2022/12/18 06:37:10;;;;;;;39.08;18.45;;;;;;;-5.52;78.51;99241.34;4142813;28;20214;-89
2022/12/18 06:39:13;;;;;;;36.88;18.45;;;;;;;-5.48;78.57;99245.63;4125485;28;20602;-89
2022/12/18 06:41:18;;;;;;;35.78;18.50;;;;;;;-5.50;78.68;99250.69;4125977;28;20303;-89
2022/12/18 06:43:21;;;;;;;38.55;19.15;;;;;;;-5.52;78.92;99246.41;4123311;28;20232;-88
2022/12/18 06:45:24;;;;;;;34.00;17.13;;;;;;;-5.56;78.96;99248.09;4106932;28;20208;-90
2022/12/18 06:47:27;;;;;;;35.53;18.33;;;;;;;-5.60;79.51;99242.94;4119906;28;20208;-91
2022/12/18 06:49:30;;;;;;;37.33;18.42;;;;;;;-5.57;79.33;99242.97;4120634;28;22465;-89
2022/12/18 06:51:37;;;;;;;40.33;20.05;;;;;;;-5.58;79.38;99251.41;4121914;28;20204;-90
2022/12/18 06:53:40;;;;;;;38.00;19.77;;;;;;;-5.60;80.31;99248.03;4126583;28;20215;-90
2022/12/18 06:55:43;;;;;;;40.33;21.75;;;;;;;-5.69;80.53;99247.06;4106738;28;20210;-89
2022/12/18 06:57:46;;;;;;;38.72;19.08;;;;;;;-5.76;80.42;99248.69;4121499;28;20259;-90
2022/12/18 06:59:49;;;;;;;39.38;19.15;;;;;;;-5.86;81.25;99246.03;4123536;28;20208;-89
2022/12/18 07:01:53;;;;;;;48.83;22.45;;;;;;;-5.86;81.45;99246.88;4140811;28;20226;-89
2022/12/18 07:03:57;;;;;;;70.60;30.73;;;;;;;-5.90;80.78;99251.88;4137377;28;20888;-89
2022/12/18 07:06:01;;;;;;;98.40;38.45;;;;;;;-5.89;81.51;99253.59;4139304;28;20206;-88
2022/12/18 07:08:06;;;;;;;116.53;42.90;;;;;;;-5.95;81.44;99261.97;4124773;28;20208;-89
2022/12/18 07:10:10;;;;;;;81.38;32.78;;;;;;;-5.97;81.69;99267.84;4124611;28;20240;-90
2022/12/18 07:12:13;;;;;;;81.55;30.65;;;;;;;-6.00;81.38;99258.50;4138681;28;20212;-90
2022/12/18 07:14:16;;;;;;;79.88;30.65;;;;;;;-6.01;81.61;99269.47;4124014;28;20684;-90
2022/12/18 07:16:21;;;;;;;57.00;24.67;;;;;;;-6.00;81.97;99262.72;4137903;28;20315;-90
2022/12/18 07:18:27;;;;;;;105.00;40.00;;;;;;;-6.02;81.98;99259.31;4103851;28;20209;-89
2022/12/18 07:20:30;;;;;;;84.05;35.22;;;;;;;-5.94;81.24;99272.97;4136701;28;20597;-89
2022/12/18 07:22:33;;;;;;;71.72;28.90;;;;;;;-5.97;81.44;99280.53;4127531;28;20255;-89
2022/12/18 07:24:38;;;;;;;49.80;22.20;;;;;;;-5.94;81.79;99278.91;4125075;28;20212;-89
2022/12/18 07:26:41;;;;;;;56.60;22.20;;;;;;;-5.85;81.02;99284.13;4106729;28;20666;-88
2022/12/18 07:28:44;;;;;;;51.75;22.10;;;;;;;-5.86;82.02;99284.94;4112014;28;20212;-88
2022/12/18 07:30:47;;;;;;;58.28;22.55;;;;;;;-5.85;81.95;99281.56;4137436;28;20720;-89
2022/12/18 07:32:50;;;;;;;41.85;20.25;;;;;;;-5.78;81.50;99290.97;4135371;28;20300;-89
2022/12/18 07:34:53;;;;;;;42.28;19.50;;;;;;;-5.77;81.70;99290.16;4112295;28;20861;-88
2022/12/18 07:36:57;;;;;;;38.35;18.73;;;;;;;-5.77;81.78;99287.59;4125118;28;20340;-88
2022/12/18 07:39:00;;;;;;;37.28;18.85;;;;;;;-5.74;81.59;99289.31;4139468;28;20950;-88
2022/12/18 07:41:06;;;;;;;37.35;17.95;;;;;;;-5.78;81.52;99288.44;4104028;28;20205;-89
2022/12/18 07:43:09;;;;;;;47.55;22.73;;;;;;;-5.70;81.57;99296.97;4108926;28;20205;-89
2022/12/18 07:45:12;;;;;;;66.72;32.40;;;;;;;-5.69;82.62;99302.91;4120956;28;20327;-89
2022/12/18 07:47:15;;;;;;;46.42;24.60;;;;;;;-5.61;82.06;99315.75;4140693;28;20207;-89
2022/12/18 07:49:18;;;;;;;38.38;20.05;;;;;;;-5.55;81.81;99305.66;4123105;28;20223;-89
2022/12/18 07:51:21;;;;;;;40.40;18.60;;;;;;;-5.52;81.92;99309.91;4110911;28;20337;-89
2022/12/18 07:53:24;;;;;;;41.20;20.15;;;;;;;-5.42;81.93;99314.28;4124286;28;20299;-89
2022/12/18 07:55:27;;;;;;;37.70;18.48;;;;;;;-5.22;81.45;99320.47;4137742;28;20344;-89
2022/12/18 07:57:51;;;;;;;37.47;19.02;;;;;;;-5.08;80.96;99320.66;4121216;28;20238;-89
2022/12/18 08:00:01;;;;;;;40.17;19.55;;;;;;;-4.91;80.57;99331.88;4140779;28;20307;-88
2022/12/18 08:02:15;;;;;;;38.65;18.10;;;;;;;-4.71;80.61;99325.31;4128237;28;20266;-89
2022/12/18 08:04:39;;;;;;;35.95;18.20;;;;;;;-4.50;79.46;99331.47;4139354;28;20215;-88
2022/12/18 08:06:42;;;;;;;38.30;18.77;;;;;;;-4.33;79.74;99336.72;4120085;28;20208;-89
2022/12/18 08:08:50;;;;;;;41.28;18.92;;;;;;;-4.23;78.79;99346.16;4136888;28;20317;-89
2022/12/18 08:10:53;;;;;;;37.83;18.50;;;;;;;-4.14;78.36;99336.91;4103911;28;20251;-88
2022/12/18 08:12:57;;;;;;;32.75;17.30;;;;;;;-4.04;77.96;99343.81;4140311;28;20243;-88
2022/12/18 08:15:07;;;;;;;39.88;19.88;;;;;;;-3.93;78.06;99342.19;4122224;28;20646;-89
2022/12/18 08:17:11;;;;;;;39.55;19.95;;;;;;;-3.94;77.63;99336.25;4137363;28;20212;-88
2022/12/18 08:19:14;;;;;;;38.63;19.35;;;;;;;-3.90;77.76;99329.47;4132715;28;20219;-87
2022/12/18 08:21:19;;;;;;;45.78;21.40;;;;;;;-3.81;77.57;99327.00;4135544;28;20215;-87
2022/12/18 08:23:23;;;;;;;38.85;19.98;;;;;;;-3.75;77.44;99330.44;4117541;28;20242;-90
2022/12/18 08:25:30;;;;;;;43.83;20.92;;;;;;;-3.73;77.65;99337.25;4137456;28;20212;-88
2022/12/18 08:27:33;;;;;;;38.75;19.10;;;;;;;-3.61;77.26;99336.47;4118716;28;20200;-88
2022/12/18 08:29:38;;;;;;;40.97;19.58;;;;;;;-3.49;77.18;99334.00;4121906;28;20224;-89
2022/12/18 08:31:41;;;;;;;38.05;18.02;;;;;;;-3.33;77.17;99335.81;4123679;28;20284;-89
2022/12/18 08:33:44;;;;;;;40.30;18.70;;;;;;;-3.15;76.98;99335.06;4122866;28;20311;-88
2022/12/18 08:35:48;;;;;;;38.58;18.10;;;;;;;-2.95;76.79;99345.34;4103965;28;20220;-88
2022/12/18 08:37:51;;;;;;;36.42;18.58;;;;;;;-2.84;76.19;99347.09;4124648;28;20845;-87
2022/12/18 08:39:54;;;;;;;40.25;20.30;;;;;;;-2.76;75.35;99350.53;4105563;28;20209;-88
2022/12/18 08:46:41;;;;;;;36.35;18.35;;;;;;;-2.34;75.33;99352.34;4140581;28;20204;-90
2022/12/18 08:48:45;;;;;;;35.20;16.65;;;;;;;-2.23;75.10;99342.16;4109520;28;20320;-90
2022/12/18 08:50:55;;;;;;;35.45;18.45;;;;;;;-2.08;75.16;99344.72;4120994;28;20597;-90
2022/12/18 08:52:58;;;;;;;39.90;21.17;;;;;;;-1.97;74.62;99349.00;4127782;28;20711;-90
2022/12/18 08:55:01;;;;;;;33.42;17.90;;;;;;;-1.95;73.92;99342.19;4122919;28;20228;-89
2022/12/18 08:57:04;;;;;;;41.35;19.70;;;;;;;-1.92;73.47;99348.97;4126020;28;20207;-88
2022/12/18 08:59:07;;;;;;;33.85;18.20;;;;;;;-1.85;74.10;99351.53;4135001;28;20207;-87
2022/12/18 09:01:12;;;;;;;38.63;19.10;;;;;;;-1.76;73.92;99354.97;4106427;28;20268;-88
2022/12/18 09:03:17;;;;;;;37.15;18.38;;;;;;;-1.66;73.76;99361.75;4137273;28;20218;-88
2022/12/18 09:05:23;;;;;;;38.13;19.50;;;;;;;-1.59;73.40;99363.47;4120159;28;20212;-87
2022/12/18 09:07:26;;;;;;;33.28;17.63;;;;;;;-1.54;73.59;99348.97;4122266;28;20571;-87
2022/12/18 09:09:29;;;;;;;38.70;19.20;;;;;;;-1.43;73.53;99351.53;4114219;28;20703;-88
2022/12/18 09:11:34;;;;;;;35.22;17.77;;;;;;;-1.54;73.43;99345.56;4098067;28;20503;-87
2022/12/18 09:13:37;;;;;;;40.00;18.70;;;;;;;-1.45;73.54;99340.47;4116888;28;20596;-89
2022/12/18 09:15:42;;;;;;;37.17;19.33;;;;;;;-1.41;73.17;99338.72;4132886;28;20211;-88
2022/12/18 09:17:45;;;;;;;38.00;18.27;;;;;;;-1.38;73.14;99332.78;4135731;28;20241;-87
2022/12/18 09:19:53;;;;;;;37.97;18.65;;;;;;;-1.40;72.71;99334.47;4110099;28;20568;-87
2022/12/18 09:21:56;;;;;;;34.42;17.77;;;;;;;-1.34;73.07;99332.75;4103879;28;20209;-86
2022/12/18 09:23:59;;;;;;;34.65;19.10;;;;;;;-1.25;73.17;99330.19;4140631;28;20211;-86
2022/12/18 09:26:02;;;;;;;40.22;19.27;;;;;;;-1.13;73.24;99332.69;4132502;28;20223;-87
2022/12/18 09:28:07;;;;;;;38.10;18.75;;;;;;;-1.04;73.06;99332.66;4136047;28;20211;-86
2022/12/18 09:30:11;;;;;;;34.75;17.98;;;;;;;-0.99;72.42;99333.50;4121449;28;20220;-88
2022/12/18 09:32:15;;;;;;;40.28;18.35;;;;;;;-0.94;72.49;99328.38;4122132;28;20790;-86
2022/12/18 09:34:24;;;;;;;39.92;19.10;;;;;;;-0.90;72.63;99321.53;4138849;28;20261;-87
2022/12/18 09:36:28;;;;;;;36.10;18.63;;;;;;;-0.85;72.55;99327.47;4112055;28;20768;-87
2022/12/18 09:38:32;;;;;;;34.20;18.65;;;;;;;-0.75;72.45;99325.72;4139465;28;20211;-87
2022/12/18 09:40:37;;;;;;;36.38;17.80;;;;;;;-0.71;72.68;99324.84;4106998;28;20276;-85
2022/12/18 09:42:40;;;;;;;37.78;19.20;;;;;;;-0.64;72.48;99322.25;4140434;28;20991;-85